createdAt,value
2019-03-01T00:01:42.205Z,49.09
2019-03-01T00:04:13.246Z,49.13
2019-03-01T00:06:44.281Z,49.35
2019-03-01T00:09:35.126Z,49.79
2019-03-01T00:12:08.232Z,50.05
2019-03-01T00:14:41.502Z,50.06
2019-03-01T00:20:05.476Z,50.00
2019-03-01T00:22:48.642Z,49.77
2019-03-01T00:25:21.993Z,49.97
2019-03-01T00:28:06.407Z,50.09
2019-03-01T00:30:40.570Z,50.27
2019-03-01T00:33:14.395Z,50.42
2019-03-01T00:35:53.281Z,50.67
2019-03-01T00:38:50.450Z,50.97
2019-03-01T00:41:24.342Z,51.22
2019-03-01T00:43:58.646Z,51.61
2019-03-01T00:46:26.069Z,51.76
2019-03-01T00:48:53.496Z,51.83
2019-03-01T00:51:20.888Z,52.03
2019-03-01T00:53:48.295Z,52.08
2019-03-01T00:56:15.685Z,52.12
2019-03-01T00:58:43.099Z,52.19
2019-03-01T01:01:10.553Z,52.33
2019-03-01T01:03:38.129Z,52.47
2019-03-01T01:06:05.515Z,52.46
2019-03-01T01:08:32.904Z,52.36
2019-03-01T01:11:00.307Z,52.26
2019-03-01T01:13:27.698Z,52.29
2019-03-01T01:15:55.095Z,52.30
2019-03-01T01:18:22.495Z,52.30
2019-03-01T01:20:49.893Z,52.30
2019-03-01T01:23:17.304Z,52.17
2019-03-01T01:25:44.695Z,51.93
2019-03-01T01:28:12.103Z,51.91
2019-03-01T01:30:39.503Z,51.83
2019-03-01T01:33:06.986Z,51.81
2019-03-01T01:35:34.386Z,51.71
2019-03-01T01:38:01.869Z,51.77
2019-03-01T01:40:29.270Z,51.93
2019-03-01T01:42:56.682Z,52.13
2019-03-01T01:45:24.069Z,52.52
2019-03-01T01:47:51.551Z,52.94
2019-03-01T01:50:19.007Z,53.39
2019-03-01T01:52:46.391Z,53.71
2019-03-01T01:55:13.813Z,53.83
2019-03-01T01:57:41.479Z,53.84
2019-03-01T02:00:08.932Z,53.70
2019-03-01T02:02:36.314Z,53.54
2019-03-01T02:05:03.764Z,53.74
2019-03-01T02:07:31.182Z,54.22
2019-03-01T02:09:58.603Z,54.62
2019-03-01T02:12:26.050Z,54.91
2019-03-01T02:14:53.447Z,55.15
2019-03-01T02:17:20.843Z,55.42
2019-03-01T02:19:49.021Z,55.78
2019-03-01T02:22:16.468Z,55.91
2019-03-01T02:24:43.860Z,55.92
2019-03-01T02:27:16.642Z,56.06
2019-03-01T02:29:44.062Z,56.14
2019-03-01T02:32:11.455Z,56.04
2019-03-01T02:34:39.173Z,55.94
2019-03-01T02:37:06.560Z,55.81
2019-03-01T02:39:34.055Z,55.70
2019-03-01T02:42:01.567Z,55.68
2019-03-01T02:44:29.729Z,55.45
2019-03-01T02:46:57.130Z,55.11
2019-03-01T02:49:24.926Z,54.84
2019-03-01T02:51:52.323Z,54.70
2019-03-01T02:54:19.788Z,54.72
2019-03-01T02:56:47.141Z,54.61
2019-03-01T02:59:14.586Z,54.44
2019-03-01T03:01:42.042Z,54.19
2019-03-01T03:04:09.448Z,53.88
2019-03-01T03:06:38.800Z,53.65
2019-03-01T03:09:06.182Z,53.62
2019-03-01T03:11:33.611Z,53.61
2019-03-01T03:14:00.996Z,53.71
2019-03-01T03:16:28.419Z,53.72
2019-03-01T03:18:55.809Z,53.72
2019-03-01T03:21:23.239Z,53.94
2019-03-01T03:23:50.644Z,53.95
2019-03-01T03:26:18.074Z,54.02
2019-03-01T03:28:45.706Z,53.90
2019-03-01T03:31:13.116Z,54.00
2019-03-01T03:33:40.610Z,54.05
2019-03-01T03:36:08.004Z,54.11
2019-03-01T03:38:35.730Z,54.31
2019-03-01T03:41:03.136Z,54.42
2019-03-01T03:43:30.550Z,54.52
2019-03-01T03:45:57.987Z,54.31
2019-03-01T03:48:25.374Z,54.26
2019-03-01T03:50:52.760Z,54.32
2019-03-01T03:53:20.166Z,54.34
2019-03-01T03:55:47.567Z,54.39
2019-03-01T03:58:15.195Z,54.48
2019-03-01T04:00:42.652Z,54.48
2019-03-01T04:03:10.041Z,54.54
2019-03-01T04:05:37.451Z,54.67
2019-03-01T04:08:04.834Z,54.57
2019-03-01T04:10:32.258Z,54.60
2019-03-01T04:12:59.688Z,54.68
2019-03-01T04:15:27.112Z,54.69
2019-03-01T04:17:54.547Z,54.52
2019-03-01T04:20:21.956Z,54.50
2019-03-01T04:22:49.567Z,54.51
2019-03-01T04:25:17.001Z,54.42
2019-03-01T04:27:44.396Z,54.29
2019-03-01T04:30:12.417Z,54.08
2019-03-01T04:32:39.818Z,53.96
2019-03-01T04:35:07.230Z,53.99
2019-03-01T04:37:34.639Z,53.94
2019-03-01T04:40:02.045Z,53.98
2019-03-01T04:42:29.465Z,54.01
2019-03-01T04:44:56.854Z,53.93
2019-03-01T04:47:24.441Z,54.13
2019-03-01T04:49:51.851Z,54.37
2019-03-01T04:52:26.121Z,54.36
2019-03-01T04:54:53.537Z,54.49
2019-03-01T04:57:20.928Z,54.62
2019-03-01T04:59:48.360Z,54.60
2019-03-01T05:02:15.748Z,54.66
2019-03-01T05:04:43.157Z,54.60
2019-03-01T05:07:10.563Z,54.47
2019-03-01T05:09:37.980Z,54.28
2019-03-01T05:12:05.463Z,54.22
2019-03-01T05:14:32.882Z,54.22
2019-03-01T05:17:00.287Z,54.20
2019-03-01T05:19:27.725Z,54.18
2019-03-01T05:21:55.295Z,54.18
2019-03-01T05:24:22.722Z,54.30
2019-03-01T05:26:50.152Z,54.31
2019-03-01T05:29:17.972Z,54.29
2019-03-01T05:31:45.542Z,54.29
2019-03-01T05:34:13.129Z,54.37
2019-03-01T05:36:40.647Z,54.39
2019-03-01T05:39:08.339Z,54.46
2019-03-01T05:41:35.742Z,54.42
2019-03-01T05:44:03.133Z,54.46
2019-03-01T05:46:30.539Z,54.50
2019-03-01T05:48:58.049Z,54.38
2019-03-01T05:51:25.430Z,54.51
2019-03-01T05:53:52.871Z,54.56
2019-03-01T05:56:20.273Z,54.68
2019-03-01T05:58:47.677Z,54.72
2019-03-01T06:01:15.137Z,55.00
2019-03-01T06:06:41.552Z,55.77
2019-03-01T06:09:20.603Z,55.78
2019-03-01T06:11:55.648Z,55.67
2019-03-01T06:14:32.614Z,55.86
2019-03-01T06:17:15.941Z,56.19
2019-03-01T06:19:59.778Z,56.42
2019-03-01T06:22:37.173Z,56.36
2019-03-01T06:25:11.391Z,56.75
2019-03-01T06:27:44.613Z,56.54
2019-03-01T06:30:28.744Z,57.09
2019-03-01T06:33:05.691Z,56.15
2019-03-01T06:35:39.108Z,55.99
2019-03-01T06:44:13.825Z,55.18
2019-03-01T06:49:43.384Z,54.93
2019-03-01T06:52:10.776Z,55.05
2019-03-01T06:54:38.786Z,55.13
2019-03-01T06:57:06.198Z,55.20
2019-03-01T06:59:33.656Z,55.36
2019-03-01T07:02:02.822Z,55.42
2019-03-01T07:04:28.687Z,55.72
2019-03-01T07:06:56.105Z,55.91
2019-03-01T07:09:23.628Z,55.99
2019-03-01T07:11:51.150Z,56.04
2019-03-01T07:14:18.559Z,56.24
2019-03-01T07:16:45.965Z,56.47
2019-03-01T07:19:13.643Z,56.60
2019-03-01T07:21:41.059Z,56.52
2019-03-01T07:24:08.620Z,56.78
2019-03-01T07:26:35.947Z,56.93
2019-03-01T07:29:03.386Z,56.83
2019-03-01T07:31:30.945Z,56.81
2019-03-01T07:33:58.343Z,56.67
2019-03-01T07:36:25.758Z,56.64
2019-03-01T07:38:53.180Z,56.31
2019-03-01T07:41:20.604Z,56.19
2019-03-01T07:43:48.090Z,56.17
2019-03-01T07:46:15.545Z,56.30
2019-03-01T07:48:43.053Z,56.31
2019-03-01T07:51:10.436Z,56.30
2019-03-01T07:53:41.878Z,56.21
2019-03-01T07:56:05.536Z,55.96
2019-03-01T07:58:33.041Z,55.85
2019-03-01T08:01:00.451Z,55.71
2019-03-01T08:03:27.846Z,55.75
2019-03-01T08:05:55.282Z,55.72
2019-03-01T08:08:22.698Z,55.46
2019-03-01T08:10:50.168Z,55.49
2019-03-01T08:13:18.443Z,55.51
2019-03-01T08:15:45.917Z,55.40
2019-03-01T08:18:12.728Z,55.16
2019-03-01T08:20:40.324Z,55.24
2019-03-01T08:23:07.782Z,55.63
2019-03-01T08:25:35.207Z,55.94
2019-03-01T08:28:03.523Z,56.33
2019-03-01T08:30:31.182Z,56.70
2019-03-01T08:32:58.598Z,56.88
2019-03-01T08:35:28.268Z,56.84
2019-03-01T08:37:54.358Z,56.45
2019-03-01T08:40:21.520Z,56.23
2019-03-01T08:42:49.107Z,56.00
2019-03-01T08:45:16.892Z,55.69
2019-03-01T08:47:44.401Z,55.53
2019-03-01T08:50:11.949Z,55.32
2019-03-01T08:52:40.461Z,54.96
2019-03-01T08:55:06.817Z,54.78
2019-03-01T08:57:43.751Z,54.44
2019-03-01T09:00:02.438Z,54.43
2019-03-01T09:02:29.185Z,53.79
2019-03-01T09:04:56.784Z,53.21
2019-03-01T09:07:27.224Z,52.91
2019-03-01T09:09:53.666Z,52.20
2019-03-01T09:12:19.258Z,52.01
2019-03-01T09:14:47.096Z,51.08
2019-03-01T09:17:14.499Z,50.67
2019-03-01T09:19:41.959Z,49.90
2019-03-01T09:22:10.097Z,49.81
2019-03-01T09:24:37.530Z,49.54
2019-03-01T09:27:05.004Z,49.02
2019-03-01T09:29:41.218Z,48.77
2019-03-01T09:31:59.979Z,48.67
2019-03-01T09:34:28.693Z,48.59
2019-03-01T09:36:55.724Z,48.33
2019-03-01T09:39:22.318Z,47.97
2019-03-01T09:41:49.773Z,47.90
2019-03-01T09:44:17.318Z,48.03
2019-03-01T09:46:44.722Z,47.91
2019-03-01T09:49:12.137Z,47.84
2019-03-01T09:51:39.540Z,47.79
2019-03-01T09:54:09.381Z,47.76
2019-03-01T09:56:34.404Z,47.93
2019-03-01T09:59:01.843Z,48.18
2019-03-01T10:01:29.272Z,48.34
2019-03-01T10:03:56.688Z,48.14
2019-03-01T10:06:24.107Z,47.61
2019-03-01T10:08:51.539Z,47.46
2019-03-01T10:11:19.211Z,47.63
2019-03-01T10:13:46.602Z,48.18
2019-03-01T10:16:14.665Z,48.51
2019-03-01T10:18:42.075Z,48.31
2019-03-01T10:21:09.506Z,48.11
2019-03-01T10:23:36.916Z,48.20
2019-03-01T10:26:04.348Z,47.98
2019-03-01T10:28:31.730Z,48.08
2019-03-01T10:30:59.182Z,48.14
2019-03-01T10:33:26.673Z,48.31
2019-03-01T10:35:54.103Z,48.48
2019-03-01T10:38:21.550Z,48.43
2019-03-01T10:40:49.070Z,48.03
2019-03-01T10:43:16.608Z,47.93
2019-03-01T10:45:44.026Z,47.95
2019-03-01T10:48:11.418Z,48.18
2019-03-01T10:50:38.868Z,48.40
2019-03-01T10:53:06.294Z,48.57
2019-03-01T10:55:33.748Z,48.80
2019-03-01T10:58:01.532Z,49.42
2019-03-01T11:00:28.943Z,50.09
2019-03-01T11:02:56.353Z,50.25
2019-03-01T11:05:23.751Z,50.56
2019-03-01T11:07:51.187Z,50.48
2019-03-01T11:10:19.527Z,50.47
2019-03-01T11:12:47.316Z,50.51
2019-03-01T11:15:14.779Z,50.39
2019-03-01T11:17:42.285Z,50.24
2019-03-01T11:20:10.636Z,50.38
2019-03-01T11:22:38.076Z,50.58
2019-03-01T11:25:05.591Z,50.66
2019-03-01T11:27:32.979Z,50.43
2019-03-01T11:30:00.386Z,50.40
2019-03-01T11:32:28.065Z,50.49
2019-03-01T11:34:55.626Z,50.64
2019-03-01T11:37:23.046Z,50.76
2019-03-01T11:39:50.556Z,50.81
2019-03-01T11:42:18.026Z,51.10
2019-03-01T11:44:45.467Z,51.48
2019-03-01T11:47:12.853Z,51.59
2019-03-01T11:49:40.286Z,51.68
2019-03-01T11:52:07.723Z,51.85
2019-03-01T11:54:35.119Z,52.14
2019-03-01T11:57:02.548Z,52.60
2019-03-01T11:59:29.984Z,52.93
2019-03-01T12:01:57.446Z,52.65
2019-03-01T12:04:24.843Z,52.87
2019-03-01T12:06:52.439Z,53.24
2019-03-01T12:09:19.890Z,53.25
2019-03-01T12:11:47.285Z,53.08
2019-03-01T12:14:15.589Z,52.92
2019-03-01T12:16:43.114Z,52.51
2019-03-01T12:19:10.564Z,52.40
2019-03-01T12:21:37.956Z,52.31
2019-03-01T12:24:05.430Z,51.95
2019-03-01T12:26:32.899Z,52.01
2019-03-01T12:29:00.365Z,52.13
2019-03-01T12:31:27.864Z,52.16
2019-03-01T12:33:55.255Z,52.19
2019-03-01T12:36:22.677Z,52.39
2019-03-01T12:38:50.094Z,52.57
2019-03-01T12:41:17.509Z,52.66
2019-03-01T12:43:45.060Z,52.79
2019-03-01T12:46:12.518Z,52.88
2019-03-01T12:48:39.909Z,53.11
2019-03-01T12:51:07.600Z,53.67
2019-03-01T12:53:35.270Z,54.35
2019-03-01T12:56:02.682Z,54.70
2019-03-01T12:58:30.088Z,55.00
2019-03-01T13:00:57.499Z,55.71
2019-03-01T13:03:24.917Z,55.68
2019-03-01T13:05:52.432Z,56.15
2019-03-01T13:08:19.894Z,56.47
2019-03-01T13:10:47.284Z,56.61
2019-03-01T13:13:14.772Z,56.98
2019-03-01T13:15:45.437Z,57.47
2019-03-01T13:18:15.742Z,57.72
2019-03-01T13:20:38.395Z,57.91
2019-03-01T13:23:06.210Z,58.36
2019-03-01T13:25:33.217Z,58.58
2019-03-01T13:28:00.623Z,59.66
2019-03-01T13:30:28.042Z,60.51
2019-03-01T13:32:58.886Z,61.42
2019-03-01T13:35:26.111Z,61.70
2019-03-01T13:37:52.013Z,62.04
2019-03-01T13:40:20.913Z,61.94
2019-03-01T13:42:47.272Z,62.46
2019-03-01T13:45:15.040Z,62.29
2019-03-01T13:47:44.034Z,62.35
2019-03-01T13:50:09.417Z,61.27
2019-03-01T13:52:36.924Z,60.20
2019-03-01T13:55:04.327Z,59.45
2019-03-01T13:57:31.916Z,57.55
2019-03-01T13:59:59.299Z,56.09
2019-03-01T14:02:26.747Z,55.09
2019-03-01T14:04:54.190Z,56.08
2019-03-01T14:07:21.667Z,56.16
2019-03-01T14:09:49.063Z,56.42
2019-03-01T14:12:16.644Z,55.28
2019-03-01T14:14:44.140Z,55.38
2019-03-01T14:17:11.691Z,55.68
2019-03-01T14:19:42.169Z,56.11
2019-03-01T14:22:10.591Z,56.96
2019-03-01T14:24:34.281Z,57.75
2019-03-01T14:27:01.695Z,58.44
2019-03-01T14:29:29.070Z,58.76
2019-03-01T14:31:56.505Z,59.37
2019-03-01T14:34:24.019Z,60.36
2019-03-01T14:36:51.441Z,60.98
2019-03-01T14:39:18.876Z,61.30
2019-03-01T14:41:47.242Z,61.55
2019-03-01T14:44:14.627Z,61.60
2019-03-01T14:46:42.223Z,62.11
2019-03-01T14:49:09.723Z,62.81
2019-03-01T14:51:37.170Z,63.10
2019-03-01T14:54:07.058Z,63.37
2019-03-01T14:56:34.923Z,63.91
2019-03-01T14:59:09.203Z,64.53
2019-03-01T15:01:38.172Z,64.55
2019-03-01T15:04:05.676Z,64.45
2019-03-01T15:06:33.144Z,64.12
2019-03-01T15:09:00.572Z,64.36
2019-03-01T15:11:28.180Z,63.76
2019-03-01T15:13:55.588Z,63.15
2019-03-01T15:16:23.084Z,62.75
2019-03-01T15:18:50.521Z,62.03
2019-03-01T15:21:17.935Z,61.95
2019-03-01T15:23:45.362Z,61.88
2019-03-01T15:26:12.850Z,61.97
2019-03-01T15:28:43.951Z,62.50
2019-03-01T15:31:11.419Z,62.27
2019-03-01T15:33:38.820Z,62.80
2019-03-01T15:36:06.405Z,62.96
2019-03-01T15:38:33.808Z,63.26
2019-03-01T15:41:03.601Z,63.83
2019-03-01T15:43:29.891Z,64.03
2019-03-01T15:45:56.057Z,64.40
2019-03-01T15:48:23.498Z,64.33
2019-03-01T15:50:50.921Z,64.18
2019-03-01T15:53:21.501Z,64.10
2019-03-01T15:55:45.785Z,63.83
2019-03-01T15:58:14.285Z,63.83
2019-03-01T16:00:41.678Z,63.55
2019-03-01T16:03:09.175Z,63.63
2019-03-01T16:05:37.517Z,63.87
2019-03-01T16:08:05.485Z,64.43
2019-03-01T16:10:32.934Z,64.29
2019-03-01T16:12:59.302Z,64.54
2019-03-01T16:15:26.789Z,64.83
2019-03-01T16:17:54.325Z,65.05
2019-03-01T16:20:25.114Z,65.28
2019-03-01T16:22:51.160Z,65.22
2019-03-01T16:25:17.207Z,65.38
2019-03-01T16:27:44.333Z,64.90
2019-03-01T16:30:14.596Z,64.57
2019-03-01T16:32:40.838Z,64.29
2019-03-01T16:35:08.586Z,64.18
2019-03-01T16:37:37.784Z,64.08
2019-03-01T16:40:04.126Z,64.05
2019-03-01T16:42:38.171Z,64.18
2019-03-01T16:44:59.029Z,64.35
2019-03-01T16:47:26.451Z,64.71
2019-03-01T16:49:53.866Z,65.13
2019-03-01T16:52:21.287Z,65.78
2019-03-01T16:54:51.468Z,66.47
2019-03-01T16:57:16.091Z,67.03
2019-03-01T16:59:43.741Z,67.37
2019-03-01T17:02:11.010Z,67.67
2019-03-01T17:04:38.440Z,67.54
2019-03-01T17:07:05.845Z,67.58
2019-03-01T17:09:33.284Z,67.57
2019-03-01T17:12:00.733Z,67.50
2019-03-01T17:14:28.130Z,67.42
2019-03-01T17:16:56.284Z,67.42
2019-03-01T17:19:23.743Z,67.40
2019-03-01T17:21:51.150Z,67.48
2019-03-01T17:24:17.754Z,67.34
2019-03-01T17:26:45.152Z,67.50
2019-03-01T17:29:12.632Z,67.81
2019-03-01T17:31:40.047Z,67.74
2019-03-01T17:34:07.507Z,67.92
2019-03-01T17:36:35.124Z,67.97
2019-03-01T17:39:02.604Z,67.84
2019-03-01T17:41:30.001Z,67.78
2019-03-01T17:43:57.400Z,67.75
2019-03-01T17:46:25.479Z,67.66
2019-03-01T17:48:54.198Z,67.89
2019-03-01T17:51:21.185Z,67.73
2019-03-01T17:53:47.324Z,67.73
2019-03-01T17:56:14.653Z,67.70
2019-03-01T17:58:43.038Z,67.62
2019-03-01T18:01:10.420Z,67.57
2019-03-01T18:03:37.830Z,67.93
2019-03-01T18:06:05.387Z,68.26
2019-03-01T18:08:35.868Z,68.59
2019-03-01T18:11:00.331Z,69.34
2019-03-01T18:13:27.939Z,69.45
2019-03-01T18:15:55.400Z,69.89
2019-03-01T18:18:22.823Z,70.22
2019-03-01T18:20:50.237Z,70.25
2019-03-01T18:23:17.628Z,70.42
2019-03-01T18:25:45.034Z,70.64
2019-03-01T18:28:12.531Z,70.75
2019-03-01T18:30:40.091Z,70.48
2019-03-01T18:33:07.607Z,70.50
2019-03-01T18:35:35.059Z,70.60
2019-03-01T18:38:02.518Z,70.62
2019-03-01T18:40:29.980Z,70.67
2019-03-01T18:42:57.526Z,70.84
2019-03-01T18:45:24.993Z,70.85
2019-03-01T18:47:52.385Z,71.08
2019-03-01T18:50:36.038Z,71.04
2019-03-01T18:53:04.125Z,71.09
2019-03-01T18:55:30.992Z,70.97
2019-03-01T18:57:58.397Z,70.79
2019-03-01T19:00:32.564Z,70.90
2019-03-01T19:03:01.063Z,71.32
2019-03-01T19:05:25.678Z,71.51
2019-03-01T19:07:53.074Z,71.57
2019-03-01T19:10:20.465Z,71.61
2019-03-01T19:12:48.620Z,71.87
2019-03-01T19:15:16.280Z,71.86
2019-03-01T19:17:44.500Z,72.17
2019-03-01T19:20:10.954Z,72.59
2019-03-01T19:22:38.457Z,72.87
2019-03-01T19:25:05.865Z,72.84
2019-03-01T19:27:33.348Z,72.61
2019-03-01T19:30:00.790Z,72.49
2019-03-01T19:32:28.211Z,72.48
2019-03-01T19:34:55.595Z,72.35
2019-03-01T19:37:23.158Z,72.37
2019-03-01T19:39:50.617Z,72.51
2019-03-01T19:42:18.024Z,72.65
2019-03-01T19:44:45.445Z,72.55
2019-03-01T19:47:12.878Z,72.56
2019-03-01T19:49:40.286Z,72.41
2019-03-01T19:52:09.415Z,72.09
2019-03-01T19:54:35.697Z,72.26
2019-03-01T19:57:03.025Z,72.43
2019-03-01T19:59:30.407Z,72.29
2019-03-01T20:01:58.048Z,72.03
2019-03-01T20:04:25.564Z,71.74
2019-03-01T20:06:52.957Z,71.56
2019-03-01T20:09:20.417Z,71.74
2019-03-01T20:11:47.829Z,71.89
2019-03-01T20:14:16.887Z,71.81
2019-03-01T20:16:42.731Z,71.55
2019-03-01T20:19:10.232Z,71.68
2019-03-01T20:21:37.914Z,71.70
2019-03-01T20:24:06.836Z,71.53
2019-03-01T20:26:32.718Z,71.96
2019-03-01T20:29:00.133Z,72.21
2019-03-01T20:31:27.584Z,72.13
2019-03-01T20:33:54.958Z,71.98
2019-03-01T20:36:22.424Z,72.16
2019-03-01T20:38:49.833Z,72.06
2019-03-01T20:41:17.230Z,71.79
2019-03-01T20:43:44.648Z,71.31
2019-03-01T20:48:45.804Z,70.74
2019-03-01T20:51:13.223Z,70.70
2019-03-01T20:53:40.676Z,70.69
2019-03-01T20:56:09.944Z,70.79
2019-03-01T20:58:39.397Z,71.06
2019-03-01T21:01:03.311Z,71.10
2019-03-01T21:03:30.775Z,71.50
2019-03-01T21:05:58.177Z,71.70
2019-03-01T21:08:28.797Z,71.53
2019-03-01T21:10:53.159Z,71.49
2019-03-01T21:13:20.638Z,72.19
2019-03-01T21:15:48.140Z,72.45
2019-03-01T21:18:15.663Z,72.53
2019-03-01T21:23:16.834Z,72.40
2019-03-01T21:25:44.267Z,72.53
2019-03-01T21:28:11.653Z,72.39
2019-03-01T21:30:39.118Z,72.33
2019-03-01T21:33:06.515Z,72.19
2019-03-01T21:35:33.923Z,71.85
2019-03-01T21:38:01.350Z,71.58
2019-03-01T21:40:31.386Z,71.29
2019-03-01T21:42:59.736Z,70.87
2019-03-01T21:45:23.607Z,70.49
2019-03-01T21:47:51.135Z,70.41
2019-03-01T21:50:18.541Z,70.18
2019-03-01T21:52:45.926Z,70.20
2019-03-01T21:55:15.831Z,70.09
2019-03-01T21:57:44.188Z,70.20
2019-03-01T22:00:15.150Z,70.07
2019-03-01T22:02:42.556Z,69.98
2019-03-01T22:05:10.314Z,69.74
2019-03-01T22:07:38.197Z,69.61
2019-03-01T22:10:05.215Z,69.43
2019-03-01T22:12:32.633Z,69.12
2019-03-01T22:15:00.044Z,69.35
2019-03-01T22:17:27.464Z,69.23
2019-03-01T22:19:54.942Z,69.34
2019-03-01T22:22:22.440Z,69.42
2019-03-01T22:24:49.928Z,69.81
2019-03-01T22:27:17.348Z,70.40
2019-03-01T22:29:47.279Z,70.66
2019-03-01T22:32:12.259Z,70.68
2019-03-01T22:34:39.602Z,70.91
2019-03-01T22:37:07.003Z,70.92
2019-03-01T22:39:34.446Z,70.86
2019-03-01T22:42:01.849Z,70.85
2019-03-01T22:44:29.266Z,70.69
2019-03-01T22:46:57.926Z,70.66
2019-03-01T22:49:24.100Z,70.62
2019-03-01T22:51:52.914Z,70.68
2019-03-01T22:54:19.098Z,70.88
2019-03-01T22:56:48.482Z,71.02
2019-03-01T22:59:14.216Z,71.04
2019-03-01T23:01:41.638Z,70.98
2019-03-01T23:04:09.803Z,70.91
2019-03-01T23:06:37.253Z,71.31
2019-03-01T23:09:10.251Z,71.61
2019-03-01T23:11:32.509Z,72.09
2019-03-01T23:13:59.587Z,72.56
2019-03-01T23:16:27.091Z,72.92
2019-03-01T23:18:56.843Z,72.88
2019-03-01T23:21:21.969Z,72.77
2019-03-01T23:23:49.400Z,72.73
2019-03-01T23:26:18.663Z,72.87
2019-03-01T23:28:44.660Z,72.98
2019-03-01T23:31:11.774Z,73.09
2019-03-01T23:33:39.203Z,73.04
2019-03-01T23:36:06.617Z,72.88
2019-03-01T23:38:34.030Z,72.72
2019-03-01T23:41:01.502Z,72.70
2019-03-01T23:43:30.886Z,72.87
2019-03-01T23:45:56.338Z,72.87
2019-03-01T23:48:24.159Z,72.69
2019-03-01T23:50:51.549Z,72.71
2019-03-01T23:53:18.955Z,72.64
2019-03-01T23:55:46.362Z,72.26
2019-03-01T23:58:15.838Z,71.96
